Terminal Aerodrome Forecast
Issued by NWS Wilmington, OH

Current Version | Previous Version | Graphics & Text | Print | Product List | Glossary On
Versions: 1 2 3 4 5 6 7 8 9 10 11 12 13 14 15 16 17
000
FTUS41 KILN 131136
TAFCMH
TAF
KCMH 131136Z 1312/1412 35015G25KT P6SM OVC025
     FM131400 34014G22KT P6SM SCT025 BKN035
     FM131700 34010KT P6SM BKN025
     FM140900 00000KT P6SM SCT025=

USA.gov is the U.S. government's official web portal to all federal, state and local government web resources and services.